sensor_id;sensor_type;location;lat;lon;timestamp;P1;durP1;ratioP1;P2;durP2;ratioP2
68653;SDS011;55636;51.108;13.622;2022-10-18T00:00:54;32.38;;;26.20;;
68653;SDS011;55636;51.108;13.622;2022-10-18T00:01:57;35.83;;;27.25;;
68653;SDS011;55636;51.108;13.622;2022-10-18T00:02:59;37.53;;;28.52;;
68653;SDS011;55636;51.108;13.622;2022-10-18T00:04:01;32.15;;;27.00;;
68653;SDS011;55636;51.108;13.622;2022-10-18T00:05:04;34.85;;;26.50;;
68653;SDS011;55636;51.108;13.622;2022-10-18T00:06:07;33.83;;;26.90;;
68653;SDS011;55636;51.108;13.622;2022-10-18T00:07:12;40.15;;;28.45;;
68653;SDS011;55636;51.108;13.622;2022-10-18T00:08:15;32.60;;;26.48;;
68653;SDS011;55636;51.108;13.622;2022-10-18T00:09:18;34.65;;;27.60;;
68653;SDS011;55636;51.108;13.622;2022-10-18T00:10:20;35.20;;;28.30;;
68653;SDS011;55636;51.108;13.622;2022-10-18T00:11:25;35.90;;;27.55;;
68653;SDS011;55636;51.108;13.622;2022-10-18T00:12:28;37.83;;;28.73;;
68653;SDS011;55636;51.108;13.622;2022-10-18T00:13:30;32.13;;;26.27;;
68653;SDS011;55636;51.108;13.622;2022-10-18T00:14:33;35.97;;;27.17;;
68653;SDS011;55636;51.108;13.622;2022-10-18T00:15:35;33.70;;;26.92;;
68653;SDS011;55636;51.108;13.622;2022-10-18T00:16:37;37.38;;;26.52;;
68653;SDS011;55636;51.108;13.622;2022-10-18T00:17:40;34.08;;;26.48;;
68653;SDS011;55636;51.108;13.622;2022-10-18T00:18:42;33.42;;;27.20;;
68653;SDS011;55636;51.108;13.622;2022-10-18T00:19:45;35.55;;;27.80;;
68653;SDS011;55636;51.108;13.622;2022-10-18T00:21:00;35.13;;;27.13;;
68653;SDS011;55636;51.108;13.622;2022-10-18T00:22:04;35.38;;;26.52;;
68653;SDS011;55636;51.108;13.622;2022-10-18T00:23:06;32.72;;;25.90;;
68653;SDS011;55636;51.108;13.622;2022-10-18T00:24:09;32.55;;;26.55;;
68653;SDS011;55636;51.108;13.622;2022-10-18T00:25:11;35.42;;;27.25;;
68653;SDS011;55636;51.108;13.622;2022-10-18T00:26:18;34.92;;;26.83;;
68653;SDS011;55636;51.108;13.622;2022-10-18T00:27:22;35.65;;;27.00;;
68653;SDS011;55636;51.108;13.622;2022-10-18T00:28:25;31.58;;;25.08;;
68653;SDS011;55636;51.108;13.622;2022-10-18T00:29:27;34.80;;;26.83;;
68653;SDS011;55636;51.108;13.622;2022-10-18T00:30:29;34.35;;;26.60;;
68653;SDS011;55636;51.108;13.622;2022-10-18T00:31:33;34.92;;;26.48;;
68653;SDS011;55636;51.108;13.622;2022-10-18T00:32:38;35.53;;;27.73;;
68653;SDS011;55636;51.108;13.622;2022-10-18T00:33:44;33.50;;;25.88;;
68653;SDS011;55636;51.108;13.622;2022-10-18T00:34:47;34.45;;;26.70;;
68653;SDS011;55636;51.108;13.622;2022-10-18T00:35:49;35.00;;;26.98;;
68653;SDS011;55636;51.108;13.622;2022-10-18T00:36:52;33.72;;;26.70;;
68653;SDS011;55636;51.108;13.622;2022-10-18T00:37:54;34.75;;;26.92;;
68653;SDS011;55636;51.108;13.622;2022-10-18T00:38:56;31.35;;;26.42;;
68653;SDS011;55636;51.108;13.622;2022-10-18T00:39:59;35.50;;;26.92;;
68653;SDS011;55636;51.108;13.622;2022-10-18T00:41:02;34.92;;;26.80;;
68653;SDS011;55636;51.108;13.622;2022-10-18T00:42:05;33.40;;;27.13;;
68653;SDS011;55636;51.108;13.622;2022-10-18T00:43:08;33.22;;;27.20;;
68653;SDS011;55636;51.108;13.622;2022-10-18T00:45:19;32.65;;;25.98;;
68653;SDS011;55636;51.108;13.622;2022-10-18T00:46:24;33.50;;;26.60;;
68653;SDS011;55636;51.108;13.622;2022-10-18T00:47:28;34.83;;;27.67;;
68653;SDS011;55636;51.108;13.622;2022-10-18T00:48:32;33.22;;;25.80;;
68653;SDS011;55636;51.108;13.622;2022-10-18T00:49:35;34.53;;;26.98;;
68653;SDS011;55636;51.108;13.622;2022-10-18T00:50:44;34.70;;;26.83;;
68653;SDS011;55636;51.108;13.622;2022-10-18T00:52:10;34.03;;;26.83;;
68653;SDS011;55636;51.108;13.622;2022-10-18T00:53:17;35.63;;;27.75;;
68653;SDS011;55636;51.108;13.622;2022-10-18T00:54:22;37.08;;;27.50;;
68653;SDS011;55636;51.108;13.622;2022-10-18T00:55:26;34.72;;;27.05;;
68653;SDS011;55636;51.108;13.622;2022-10-18T00:56:29;34.25;;;26.70;;
68653;SDS011;55636;51.108;13.622;2022-10-18T00:57:34;32.97;;;25.77;;
68653;SDS011;55636;51.108;13.622;2022-10-18T00:58:37;33.97;;;25.90;;
68653;SDS011;55636;51.108;13.622;2022-10-18T00:59:42;34.95;;;26.38;;
68653;SDS011;55636;51.108;13.622;2022-10-18T01:00:46;35.65;;;26.52;;
68653;SDS011;55636;51.108;13.622;2022-10-18T01:01:49;34.83;;;27.58;;
68653;SDS011;55636;51.108;13.622;2022-10-18T01:02:51;32.40;;;26.13;;
68653;SDS011;55636;51.108;13.622;2022-10-18T01:03:53;36.45;;;27.60;;
68653;SDS011;55636;51.108;13.622;2022-10-18T01:04:56;34.08;;;26.27;;
68653;SDS011;55636;51.108;13.622;2022-10-18T01:05:59;34.17;;;27.48;;
68653;SDS011;55636;51.108;13.622;2022-10-18T01:07:24;33.22;;;26.92;;
68653;SDS011;55636;51.108;13.622;2022-10-18T01:13:45;32.28;;;26.95;;
68653;SDS011;55636;51.108;13.622;2022-10-18T01:16:46;34.10;;;25.67;;
68653;SDS011;55636;51.108;13.622;2022-10-18T01:18:00;32.10;;;25.85;;
68653;SDS011;55636;51.108;13.622;2022-10-18T01:19:23;33.67;;;26.75;;
68653;SDS011;55636;51.108;13.622;2022-10-18T01:22:08;35.30;;;26.73;;
68653;SDS011;55636;51.108;13.622;2022-10-18T01:23:44;34.58;;;26.50;;
68653;SDS011;55636;51.108;13.622;2022-10-18T01:29:23;36.20;;;27.83;;
68653;SDS011;55636;51.108;13.622;2022-10-18T01:31:35;33.70;;;27.38;;
68653;SDS011;55636;51.108;13.622;2022-10-18T01:32:45;35.28;;;27.25;;
68653;SDS011;55636;51.108;13.622;2022-10-18T01:34:01;34.85;;;27.35;;
68653;SDS011;55636;51.108;13.622;2022-10-18T01:35:06;33.72;;;25.83;;
68653;SDS011;55636;51.108;13.622;2022-10-18T01:37:29;33.97;;;26.25;;
68653;SDS011;55636;51.108;13.622;2022-10-18T01:38:35;31.77;;;27.30;;
68653;SDS011;55636;51.108;13.622;2022-10-18T01:39:39;36.95;;;27.33;;
68653;SDS011;55636;51.108;13.622;2022-10-18T01:41:01;32.92;;;25.85;;
68653;SDS011;55636;51.108;13.622;2022-10-18T01:42:06;33.55;;;26.25;;
68653;SDS011;55636;51.108;13.622;2022-10-18T01:43:11;33.40;;;25.95;;
68653;SDS011;55636;51.108;13.622;2022-10-18T01:44:23;33.65;;;26.60;;
68653;SDS011;55636;51.108;13.622;2022-10-18T01:45:27;35.97;;;26.55;;
68653;SDS011;55636;51.108;13.622;2022-10-18T01:46:30;34.10;;;26.85;;
68653;SDS011;55636;51.108;13.622;2022-10-18T01:47:34;33.63;;;25.88;;
68653;SDS011;55636;51.108;13.622;2022-10-18T01:48:37;34.47;;;27.15;;
68653;SDS011;55636;51.108;13.622;2022-10-18T01:49:40;35.70;;;27.10;;
68653;SDS011;55636;51.108;13.622;2022-10-18T01:50:42;33.28;;;26.58;;
68653;SDS011;55636;51.108;13.622;2022-10-18T01:51:44;37.08;;;28.08;;
68653;SDS011;55636;51.108;13.622;2022-10-18T01:52:47;33.28;;;26.20;;
68653;SDS011;55636;51.108;13.622;2022-10-18T01:53:51;33.13;;;26.10;;
68653;SDS011;55636;51.108;13.622;2022-10-18T01:54:54;32.80;;;26.88;;
68653;SDS011;55636;51.108;13.622;2022-10-18T01:56:02;32.65;;;26.73;;
68653;SDS011;55636;51.108;13.622;2022-10-18T01:58:25;36.28;;;26.48;;
68653;SDS011;55636;51.108;13.622;2022-10-18T01:59:34;34.30;;;25.98;;
68653;SDS011;55636;51.108;13.622;2022-10-18T02:00:44;33.03;;;25.85;;
68653;SDS011;55636;51.108;13.622;2022-10-18T02:03:27;36.47;;;27.45;;
68653;SDS011;55636;51.108;13.622;2022-10-18T02:04:42;30.30;;;25.05;;
68653;SDS011;55636;51.108;13.622;2022-10-18T02:09:28;32.08;;;26.60;;
68653;SDS011;55636;51.108;13.622;2022-10-18T02:10:40;33.15;;;25.85;;
68653;SDS011;55636;51.108;13.622;2022-10-18T02:11:47;32.20;;;26.48;;
68653;SDS011;55636;51.108;13.622;2022-10-18T02:12:53;34.55;;;27.25;;
68653;SDS011;55636;51.108;13.622;2022-10-18T02:14:05;34.55;;;27.40;;
68653;SDS011;55636;51.108;13.622;2022-10-18T02:15:11;33.92;;;25.65;;
68653;SDS011;55636;51.108;13.622;2022-10-18T02:16:16;37.63;;;26.50;;
68653;SDS011;55636;51.108;13.622;2022-10-18T02:17:22;32.85;;;25.60;;
68653;SDS011;55636;51.108;13.622;2022-10-18T02:18:33;33.20;;;26.00;;
68653;SDS011;55636;51.108;13.622;2022-10-18T02:19:44;35.10;;;26.75;;
68653;SDS011;55636;51.108;13.622;2022-10-18T02:20:51;33.38;;;26.40;;
68653;SDS011;55636;51.108;13.622;2022-10-18T02:21:54;36.20;;;26.60;;
68653;SDS011;55636;51.108;13.622;2022-10-18T02:22:59;34.83;;;26.77;;
68653;SDS011;55636;51.108;13.622;2022-10-18T02:24:02;32.75;;;26.58;;
68653;SDS011;55636;51.108;13.622;2022-10-18T02:25:07;33.75;;;26.35;;
68653;SDS011;55636;51.108;13.622;2022-10-18T02:26:14;33.28;;;25.70;;
68653;SDS011;55636;51.108;13.622;2022-10-18T02:27:17;34.80;;;27.67;;
68653;SDS011;55636;51.108;13.622;2022-10-18T02:28:19;34.17;;;26.77;;
68653;SDS011;55636;51.108;13.622;2022-10-18T02:29:22;36.03;;;27.77;;
68653;SDS011;55636;51.108;13.622;2022-10-18T02:30:36;34.50;;;26.45;;
68653;SDS011;55636;51.108;13.622;2022-10-18T02:31:45;33.30;;;27.02;;
68653;SDS011;55636;51.108;13.622;2022-10-18T02:32:56;34.80;;;26.95;;
68653;SDS011;55636;51.108;13.622;2022-10-18T02:34:19;35.15;;;27.35;;
68653;SDS011;55636;51.108;13.622;2022-10-18T02:35:30;34.50;;;27.25;;
68653;SDS011;55636;51.108;13.622;2022-10-18T02:36:41;34.70;;;27.08;;
68653;SDS011;55636;51.108;13.622;2022-10-18T02:37:48;32.47;;;25.52;;
68653;SDS011;55636;51.108;13.622;2022-10-18T02:38:55;34.33;;;27.10;;
68653;SDS011;55636;51.108;13.622;2022-10-18T02:40:04;33.42;;;27.00;;
68653;SDS011;55636;51.108;13.622;2022-10-18T02:41:10;33.17;;;26.45;;
68653;SDS011;55636;51.108;13.622;2022-10-18T02:42:13;35.10;;;27.55;;
68653;SDS011;55636;51.108;13.622;2022-10-18T02:43:16;34.88;;;27.00;;
68653;SDS011;55636;51.108;13.622;2022-10-18T02:44:18;35.58;;;27.48;;
68653;SDS011;55636;51.108;13.622;2022-10-18T02:45:21;36.80;;;27.90;;
68653;SDS011;55636;51.108;13.622;2022-10-18T02:46:28;32.90;;;26.88;;
68653;SDS011;55636;51.108;13.622;2022-10-18T02:47:30;35.63;;;27.33;;
68653;SDS011;55636;51.108;13.622;2022-10-18T02:48:33;35.70;;;27.95;;
68653;SDS011;55636;51.108;13.622;2022-10-18T02:49:36;36.15;;;26.95;;
68653;SDS011;55636;51.108;13.622;2022-10-18T02:50:38;39.25;;;28.08;;
68653;SDS011;55636;51.108;13.622;2022-10-18T02:51:42;33.20;;;27.23;;
68653;SDS011;55636;51.108;13.622;2022-10-18T02:52:45;31.33;;;25.92;;
68653;SDS011;55636;51.108;13.622;2022-10-18T02:53:47;37.42;;;27.52;;
68653;SDS011;55636;51.108;13.622;2022-10-18T02:54:49;34.50;;;27.67;;
68653;SDS011;55636;51.108;13.622;2022-10-18T02:55:51;34.78;;;27.83;;
68653;SDS011;55636;51.108;13.622;2022-10-18T02:56:53;32.80;;;27.10;;
68653;SDS011;55636;51.108;13.622;2022-10-18T02:57:56;34.45;;;26.55;;
68653;SDS011;55636;51.108;13.622;2022-10-18T02:58:58;33.55;;;27.27;;
68653;SDS011;55636;51.108;13.622;2022-10-18T03:00:01;33.95;;;26.85;;
68653;SDS011;55636;51.108;13.622;2022-10-18T03:01:11;38.85;;;27.85;;
68653;SDS011;55636;51.108;13.622;2022-10-18T03:02:13;35.10;;;26.75;;
68653;SDS011;55636;51.108;13.622;2022-10-18T03:03:15;31.35;;;26.40;;
68653;SDS011;55636;51.108;13.622;2022-10-18T03:04:18;34.72;;;26.35;;
68653;SDS011;55636;51.108;13.622;2022-10-18T03:05:20;33.45;;;26.33;;
68653;SDS011;55636;51.108;13.622;2022-10-18T03:06:22;31.88;;;26.20;;
68653;SDS011;55636;51.108;13.622;2022-10-18T03:07:25;34.10;;;27.95;;
68653;SDS011;55636;51.108;13.622;2022-10-18T03:08:28;32.95;;;26.58;;
68653;SDS011;55636;51.108;13.622;2022-10-18T03:09:30;35.67;;;26.77;;
68653;SDS011;55636;51.108;13.622;2022-10-18T03:10:33;33.55;;;26.10;;
68653;SDS011;55636;51.108;13.622;2022-10-18T03:11:35;35.13;;;27.42;;
68653;SDS011;55636;51.108;13.622;2022-10-18T03:12:37;33.80;;;27.00;;
68653;SDS011;55636;51.108;13.622;2022-10-18T03:13:39;34.42;;;27.05;;
68653;SDS011;55636;51.108;13.622;2022-10-18T03:14:42;36.95;;;26.75;;
68653;SDS011;55636;51.108;13.622;2022-10-18T03:15:45;38.17;;;27.33;;
68653;SDS011;55636;51.108;13.622;2022-10-18T03:16:47;33.53;;;26.60;;
68653;SDS011;55636;51.108;13.622;2022-10-18T03:17:50;33.38;;;27.75;;
68653;SDS011;55636;51.108;13.622;2022-10-18T03:18:53;34.08;;;27.15;;
68653;SDS011;55636;51.108;13.622;2022-10-18T03:19:55;35.08;;;27.25;;
68653;SDS011;55636;51.108;13.622;2022-10-18T03:20:57;35.80;;;28.13;;
68653;SDS011;55636;51.108;13.622;2022-10-18T03:21:59;37.63;;;27.42;;
68653;SDS011;55636;51.108;13.622;2022-10-18T03:23:02;36.85;;;27.17;;
68653;SDS011;55636;51.108;13.622;2022-10-18T03:24:04;34.47;;;27.40;;
68653;SDS011;55636;51.108;13.622;2022-10-18T03:25:07;35.67;;;27.35;;
68653;SDS011;55636;51.108;13.622;2022-10-18T03:26:09;36.75;;;27.33;;
68653;SDS011;55636;51.108;13.622;2022-10-18T03:27:12;33.85;;;26.33;;
68653;SDS011;55636;51.108;13.622;2022-10-18T03:28:14;37.33;;;27.88;;
68653;SDS011;55636;51.108;13.622;2022-10-18T03:29:16;37.33;;;26.35;;
68653;SDS011;55636;51.108;13.622;2022-10-18T03:30:19;34.88;;;26.63;;
68653;SDS011;55636;51.108;13.622;2022-10-18T03:31:21;33.53;;;26.50;;
68653;SDS011;55636;51.108;13.622;2022-10-18T03:32:23;32.70;;;26.27;;
68653;SDS011;55636;51.108;13.622;2022-10-18T03:33:25;35.78;;;27.10;;
68653;SDS011;55636;51.108;13.622;2022-10-18T03:34:28;37.47;;;28.02;;
68653;SDS011;55636;51.108;13.622;2022-10-18T03:35:30;35.65;;;27.70;;
68653;SDS011;55636;51.108;13.622;2022-10-18T03:36:32;34.25;;;27.80;;
68653;SDS011;55636;51.108;13.622;2022-10-18T03:37:35;35.72;;;27.13;;
68653;SDS011;55636;51.108;13.622;2022-10-18T03:38:38;34.88;;;28.08;;
68653;SDS011;55636;51.108;13.622;2022-10-18T03:39:40;36.17;;;27.88;;
68653;SDS011;55636;51.108;13.622;2022-10-18T03:40:42;35.60;;;26.83;;
68653;SDS011;55636;51.108;13.622;2022-10-18T03:41:44;34.15;;;27.33;;
68653;SDS011;55636;51.108;13.622;2022-10-18T03:42:46;33.42;;;26.85;;
68653;SDS011;55636;51.108;13.622;2022-10-18T03:43:49;35.90;;;27.92;;
68653;SDS011;55636;51.108;13.622;2022-10-18T03:44:51;36.10;;;28.38;;
68653;SDS011;55636;51.108;13.622;2022-10-18T03:45:53;35.38;;;27.30;;
68653;SDS011;55636;51.108;13.622;2022-10-18T03:46:56;36.33;;;26.85;;
68653;SDS011;55636;51.108;13.622;2022-10-18T03:47:58;35.05;;;27.20;;
68653;SDS011;55636;51.108;13.622;2022-10-18T03:49:01;36.47;;;27.27;;
68653;SDS011;55636;51.108;13.622;2022-10-18T03:50:03;34.72;;;26.80;;
68653;SDS011;55636;51.108;13.622;2022-10-18T03:51:06;34.72;;;27.10;;
68653;SDS011;55636;51.108;13.622;2022-10-18T03:52:08;35.63;;;27.25;;
68653;SDS011;55636;51.108;13.622;2022-10-18T03:53:10;35.33;;;27.85;;
68653;SDS011;55636;51.108;13.622;2022-10-18T03:54:13;33.88;;;26.52;;
68653;SDS011;55636;51.108;13.622;2022-10-18T03:55:15;34.05;;;26.10;;
68653;SDS011;55636;51.108;13.622;2022-10-18T03:56:17;35.95;;;26.88;;
68653;SDS011;55636;51.108;13.622;2022-10-18T03:57:19;35.10;;;27.08;;
68653;SDS011;55636;51.108;13.622;2022-10-18T03:58:22;30.75;;;25.38;;
68653;SDS011;55636;51.108;13.622;2022-10-18T03:59:24;30.73;;;25.00;;
68653;SDS011;55636;51.108;13.622;2022-10-18T04:00:27;31.58;;;23.98;;
68653;SDS011;55636;51.108;13.622;2022-10-18T04:01:29;28.30;;;23.45;;
68653;SDS011;55636;51.108;13.622;2022-10-18T04:02:32;33.67;;;25.73;;
68653;SDS011;55636;51.108;13.622;2022-10-18T04:03:34;31.77;;;24.65;;
68653;SDS011;55636;51.108;13.622;2022-10-18T04:04:37;31.13;;;24.52;;
68653;SDS011;55636;51.108;13.622;2022-10-18T04:05:39;32.22;;;25.65;;
68653;SDS011;55636;51.108;13.622;2022-10-18T04:06:42;34.95;;;26.95;;
68653;SDS011;55636;51.108;13.622;2022-10-18T04:07:44;31.35;;;26.35;;
68653;SDS011;55636;51.108;13.622;2022-10-18T04:08:46;36.95;;;27.65;;
68653;SDS011;55636;51.108;13.622;2022-10-18T04:09:49;34.53;;;27.17;;
68653;SDS011;55636;51.108;13.622;2022-10-18T04:10:51;35.17;;;27.77;;
68653;SDS011;55636;51.108;13.622;2022-10-18T04:11:57;34.85;;;27.15;;
68653;SDS011;55636;51.108;13.622;2022-10-18T04:12:59;34.33;;;26.38;;
68653;SDS011;55636;51.108;13.622;2022-10-18T04:14:01;34.13;;;27.23;;
68653;SDS011;55636;51.108;13.622;2022-10-18T04:15:04;37.20;;;28.45;;
68653;SDS011;55636;51.108;13.622;2022-10-18T04:16:06;33.90;;;27.75;;
68653;SDS011;55636;51.108;13.622;2022-10-18T04:17:08;35.00;;;27.48;;
68653;SDS011;55636;51.108;13.622;2022-10-18T04:18:11;35.63;;;28.55;;
68653;SDS011;55636;51.108;13.622;2022-10-18T04:19:13;36.63;;;28.25;;
68653;SDS011;55636;51.108;13.622;2022-10-18T04:20:15;35.20;;;27.05;;
68653;SDS011;55636;51.108;13.622;2022-10-18T04:21:18;35.10;;;26.83;;
68653;SDS011;55636;51.108;13.622;2022-10-18T04:22:20;33.30;;;27.02;;
68653;SDS011;55636;51.108;13.622;2022-10-18T04:23:22;34.92;;;28.38;;
68653;SDS011;55636;51.108;13.622;2022-10-18T04:24:25;35.22;;;27.75;;
68653;SDS011;55636;51.108;13.622;2022-10-18T04:25:27;36.25;;;28.65;;
68653;SDS011;55636;51.108;13.622;2022-10-18T04:26:30;33.75;;;27.88;;
68653;SDS011;55636;51.108;13.622;2022-10-18T04:27:32;39.53;;;27.60;;
68653;SDS011;55636;51.108;13.622;2022-10-18T04:28:35;35.45;;;27.08;;
68653;SDS011;55636;51.108;13.622;2022-10-18T04:29:41;33.00;;;26.50;;
68653;SDS011;55636;51.108;13.622;2022-10-18T04:30:47;35.00;;;27.98;;
68653;SDS011;55636;51.108;13.622;2022-10-18T04:31:52;34.60;;;27.00;;
68653;SDS011;55636;51.108;13.622;2022-10-18T04:32:55;36.33;;;27.55;;
68653;SDS011;55636;51.108;13.622;2022-10-18T04:33:57;36.40;;;28.38;;
68653;SDS011;55636;51.108;13.622;2022-10-18T04:35:00;34.60;;;27.95;;
68653;SDS011;55636;51.108;13.622;2022-10-18T04:36:03;36.03;;;28.35;;
68653;SDS011;55636;51.108;13.622;2022-10-18T04:37:05;35.22;;;28.02;;
68653;SDS011;55636;51.108;13.622;2022-10-18T04:38:07;36.78;;;28.52;;
68653;SDS011;55636;51.108;13.622;2022-10-18T04:39:10;36.72;;;27.90;;
68653;SDS011;55636;51.108;13.622;2022-10-18T04:40:12;34.50;;;27.23;;
68653;SDS011;55636;51.108;13.622;2022-10-18T04:41:14;36.97;;;27.75;;
68653;SDS011;55636;51.108;13.622;2022-10-18T04:42:16;36.10;;;28.38;;
68653;SDS011;55636;51.108;13.622;2022-10-18T04:43:19;37.60;;;27.98;;
68653;SDS011;55636;51.108;13.622;2022-10-18T04:44:21;35.63;;;28.35;;
68653;SDS011;55636;51.108;13.622;2022-10-18T04:45:23;40.17;;;29.77;;
68653;SDS011;55636;51.108;13.622;2022-10-18T04:46:25;38.55;;;29.20;;
68653;SDS011;55636;51.108;13.622;2022-10-18T04:47:28;39.90;;;28.80;;
68653;SDS011;55636;51.108;13.622;2022-10-18T04:48:30;37.20;;;28.95;;
68653;SDS011;55636;51.108;13.622;2022-10-18T04:49:33;39.42;;;30.73;;
68653;SDS011;55636;51.108;13.622;2022-10-18T04:50:35;38.03;;;28.98;;
68653;SDS011;55636;51.108;13.622;2022-10-18T04:51:47;37.75;;;28.98;;
68653;SDS011;55636;51.108;13.622;2022-10-18T04:52:50;37.97;;;28.95;;
68653;SDS011;55636;51.108;13.622;2022-10-18T04:53:54;37.85;;;29.50;;
68653;SDS011;55636;51.108;13.622;2022-10-18T04:54:58;38.22;;;29.13;;
68653;SDS011;55636;51.108;13.622;2022-10-18T04:56:00;39.63;;;29.02;;
68653;SDS011;55636;51.108;13.622;2022-10-18T04:57:02;40.20;;;28.13;;
68653;SDS011;55636;51.108;13.622;2022-10-18T04:58:05;41.03;;;30.02;;
68653;SDS011;55636;51.108;13.622;2022-10-18T04:59:07;37.92;;;29.23;;
68653;SDS011;55636;51.108;13.622;2022-10-18T05:00:09;37.95;;;29.35;;
68653;SDS011;55636;51.108;13.622;2022-10-18T05:01:13;38.90;;;29.05;;
68653;SDS011;55636;51.108;13.622;2022-10-18T05:02:16;38.17;;;29.15;;
68653;SDS011;55636;51.108;13.622;2022-10-18T05:03:18;36.88;;;28.70;;
68653;SDS011;55636;51.108;13.622;2022-10-18T05:04:20;36.17;;;28.95;;
68653;SDS011;55636;51.108;13.622;2022-10-18T05:05:23;40.75;;;29.13;;
68653;SDS011;55636;51.108;13.622;2022-10-18T05:06:33;33.75;;;27.48;;
68653;SDS011;55636;51.108;13.622;2022-10-18T05:07:36;38.65;;;28.42;;
68653;SDS011;55636;51.108;13.622;2022-10-18T05:08:38;32.70;;;27.55;;
68653;SDS011;55636;51.108;13.622;2022-10-18T05:09:40;37.38;;;28.83;;
68653;SDS011;55636;51.108;13.622;2022-10-18T05:10:43;34.88;;;27.25;;
68653;SDS011;55636;51.108;13.622;2022-10-18T05:11:45;41.30;;;29.13;;
68653;SDS011;55636;51.108;13.622;2022-10-18T05:12:48;46.55;;;29.35;;
68653;SDS011;55636;51.108;13.622;2022-10-18T05:13:50;44.92;;;29.05;;
68653;SDS011;55636;51.108;13.622;2022-10-18T05:14:53;41.70;;;28.50;;
68653;SDS011;55636;51.108;13.622;2022-10-18T05:15:57;39.22;;;28.50;;
68653;SDS011;55636;51.108;13.622;2022-10-18T05:17:01;46.05;;;29.55;;
68653;SDS011;55636;51.108;13.622;2022-10-18T05:18:03;42.30;;;29.70;;
68653;SDS011;55636;51.108;13.622;2022-10-18T05:19:05;36.67;;;28.67;;
68653;SDS011;55636;51.108;13.622;2022-10-18T05:20:08;40.08;;;28.30;;
68653;SDS011;55636;51.108;13.622;2022-10-18T05:21:10;41.13;;;28.25;;
68653;SDS011;55636;51.108;13.622;2022-10-18T05:22:13;37.28;;;27.92;;
68653;SDS011;55636;51.108;13.622;2022-10-18T05:23:15;39.45;;;27.25;;
68653;SDS011;55636;51.108;13.622;2022-10-18T05:24:17;34.42;;;26.70;;
68653;SDS011;55636;51.108;13.622;2022-10-18T05:25:23;40.00;;;27.83;;
68653;SDS011;55636;51.108;13.622;2022-10-18T05:26:26;34.45;;;27.55;;
68653;SDS011;55636;51.108;13.622;2022-10-18T05:27:28;36.95;;;28.27;;
68653;SDS011;55636;51.108;13.622;2022-10-18T05:28:30;35.17;;;27.52;;
68653;SDS011;55636;51.108;13.622;2022-10-18T05:29:42;38.15;;;27.02;;
68653;SDS011;55636;51.108;13.622;2022-10-18T05:30:44;30.83;;;25.17;;
68653;SDS011;55636;51.108;13.622;2022-10-18T05:31:47;35.53;;;27.58;;
68653;SDS011;55636;51.108;13.622;2022-10-18T05:32:50;38.05;;;27.95;;
68653;SDS011;55636;51.108;13.622;2022-10-18T05:33:53;36.03;;;27.08;;
68653;SDS011;55636;51.108;13.622;2022-10-18T05:34:55;39.00;;;27.58;;
68653;SDS011;55636;51.108;13.622;2022-10-18T05:35:58;33.38;;;27.08;;
68653;SDS011;55636;51.108;13.622;2022-10-18T05:37:00;33.47;;;26.25;;
68653;SDS011;55636;51.108;13.622;2022-10-18T05:38:03;32.55;;;26.50;;
68653;SDS011;55636;51.108;13.622;2022-10-18T05:39:06;35.25;;;26.38;;
68653;SDS011;55636;51.108;13.622;2022-10-18T05:40:09;33.20;;;26.85;;
68653;SDS011;55636;51.108;13.622;2022-10-18T05:41:11;36.70;;;26.92;;
68653;SDS011;55636;51.108;13.622;2022-10-18T05:42:14;37.08;;;26.80;;
68653;SDS011;55636;51.108;13.622;2022-10-18T05:43:16;31.88;;;27.02;;
68653;SDS011;55636;51.108;13.622;2022-10-18T05:44:18;33.78;;;26.70;;
68653;SDS011;55636;51.108;13.622;2022-10-18T05:45:22;34.72;;;26.63;;
68653;SDS011;55636;51.108;13.622;2022-10-18T05:46:24;33.88;;;26.52;;
68653;SDS011;55636;51.108;13.622;2022-10-18T05:47:26;31.48;;;26.27;;
68653;SDS011;55636;51.108;13.622;2022-10-18T05:48:29;31.17;;;25.45;;
68653;SDS011;55636;51.108;13.622;2022-10-18T05:49:31;35.90;;;25.45;;
68653;SDS011;55636;51.108;13.622;2022-10-18T05:50:34;34.35;;;26.38;;
68653;SDS011;55636;51.108;13.622;2022-10-18T05:51:41;32.90;;;26.23;;
68653;SDS011;55636;51.108;13.622;2022-10-18T05:52:43;32.63;;;26.15;;
68653;SDS011;55636;51.108;13.622;2022-10-18T05:53:45;32.15;;;26.13;;
68653;SDS011;55636;51.108;13.622;2022-10-18T05:54:47;35.25;;;26.77;;
68653;SDS011;55636;51.108;13.622;2022-10-18T05:55:50;33.47;;;26.70;;
68653;SDS011;55636;51.108;13.622;2022-10-18T05:56:52;36.60;;;25.42;;
68653;SDS011;55636;51.108;13.622;2022-10-18T05:57:54;33.30;;;26.27;;
68653;SDS011;55636;51.108;13.622;2022-10-18T05:58:57;35.13;;;25.85;;
68653;SDS011;55636;51.108;13.622;2022-10-18T05:59:59;32.78;;;25.55;;
68653;SDS011;55636;51.108;13.622;2022-10-18T06:01:02;34.20;;;26.63;;
68653;SDS011;55636;51.108;13.622;2022-10-18T06:02:05;33.42;;;26.15;;
68653;SDS011;55636;51.108;13.622;2022-10-18T06:03:09;34.42;;;25.95;;
68653;SDS011;55636;51.108;13.622;2022-10-18T06:04:11;34.20;;;26.83;;
68653;SDS011;55636;51.108;13.622;2022-10-18T06:05:13;29.15;;;24.63;;
68653;SDS011;55636;51.108;13.622;2022-10-18T06:06:16;33.33;;;25.95;;
68653;SDS011;55636;51.108;13.622;2022-10-18T06:07:18;31.70;;;26.23;;
68653;SDS011;55636;51.108;13.622;2022-10-18T06:08:20;32.55;;;25.38;;
68653;SDS011;55636;51.108;13.622;2022-10-18T06:09:23;34.58;;;25.40;;
68653;SDS011;55636;51.108;13.622;2022-10-18T06:10:25;29.83;;;25.02;;
68653;SDS011;55636;51.108;13.622;2022-10-18T06:11:28;32.38;;;25.92;;
68653;SDS011;55636;51.108;13.622;2022-10-18T06:12:30;34.70;;;26.27;;
68653;SDS011;55636;51.108;13.622;2022-10-18T06:13:33;32.95;;;25.75;;
68653;SDS011;55636;51.108;13.622;2022-10-18T06:14:35;33.05;;;25.92;;
68653;SDS011;55636;51.108;13.622;2022-10-18T06:15:38;30.98;;;25.73;;
68653;SDS011;55636;51.108;13.622;2022-10-18T06:16:40;31.23;;;25.70;;
68653;SDS011;55636;51.108;13.622;2022-10-18T06:17:42;34.85;;;25.63;;
68653;SDS011;55636;51.108;13.622;2022-10-18T06:18:48;29.73;;;25.33;;
68653;SDS011;55636;51.108;13.622;2022-10-18T06:19:51;34.47;;;26.25;;
68653;SDS011;55636;51.108;13.622;2022-10-18T06:20:55;33.53;;;26.55;;
68653;SDS011;55636;51.108;13.622;2022-10-18T06:21:58;31.05;;;26.05;;
68653;SDS011;55636;51.108;13.622;2022-10-18T06:23:01;30.98;;;25.27;;
68653;SDS011;55636;51.108;13.622;2022-10-18T06:24:03;32.92;;;25.60;;
68653;SDS011;55636;51.108;13.622;2022-10-18T06:25:05;29.10;;;25.10;;
68653;SDS011;55636;51.108;13.622;2022-10-18T06:26:09;30.27;;;25.13;;
68653;SDS011;55636;51.108;13.622;2022-10-18T06:27:12;31.77;;;25.98;;
68653;SDS011;55636;51.108;13.622;2022-10-18T06:28:14;30.33;;;24.95;;
68653;SDS011;55636;51.108;13.622;2022-10-18T06:29:17;31.58;;;25.95;;
68653;SDS011;55636;51.108;13.622;2022-10-18T06:30:19;32.92;;;26.08;;
68653;SDS011;55636;51.108;13.622;2022-10-18T06:31:21;31.10;;;24.35;;
68653;SDS011;55636;51.108;13.622;2022-10-18T06:32:26;29.67;;;24.80;;